createdAt,value
2019-05-14T00:01:38.832Z,69.60
2019-05-14T00:04:05.959Z,69.70
2019-05-14T00:06:36.228Z,70.20
2019-05-14T00:09:04.580Z,70.60
2019-05-14T00:11:31.971Z,70.70
2019-05-14T00:14:01.304Z,70.90
2019-05-14T00:16:28.823Z,71.20
2019-05-14T00:18:56.407Z,71.40
2019-05-14T00:21:23.464Z,71.50
2019-05-14T00:23:51.406Z,72.20
2019-05-14T00:26:18.848Z,72.10
2019-05-14T00:28:46.375Z,72.30
2019-05-14T00:31:13.809Z,72.20
2019-05-14T00:33:41.924Z,72.40
2019-05-14T00:36:11.130Z,72.30
2019-05-14T00:38:38.398Z,72.20
2019-05-14T00:41:05.640Z,72.40
2019-05-14T00:43:33.445Z,72.50
2019-05-14T00:46:01.708Z,72.30
2019-05-14T00:48:31.198Z,72.40
2019-05-14T00:50:58.765Z,72.10
2019-05-14T00:53:26.161Z,72.00
2019-05-14T00:55:53.302Z,71.80
2019-05-14T00:58:21.827Z,72.00
2019-05-14T01:00:49.021Z,71.90
2019-05-14T01:03:16.551Z,72.00
2019-05-14T01:05:44.198Z,72.00
2019-05-14T01:08:12.070Z,72.10
2019-05-14T01:10:41.604Z,72.20
2019-05-14T01:13:08.567Z,72.30
2019-05-14T01:15:35.667Z,72.30
2019-05-14T01:18:02.907Z,72.30
2019-05-14T01:20:31.909Z,72.20
2019-05-14T01:22:59.024Z,72.40
2019-05-14T01:25:26.409Z,72.60
2019-05-14T01:27:53.591Z,72.70
2019-05-14T01:30:21.411Z,72.70
2019-05-14T01:32:51.086Z,73.00
2019-05-14T01:35:17.974Z,73.10
2019-05-14T01:37:45.273Z,73.10
2019-05-14T01:40:12.832Z,73.30
2019-05-14T01:42:41.560Z,73.40
2019-05-14T01:45:23.530Z,73.40
2019-05-14T01:47:38.146Z,73.40
2019-05-14T01:50:06.375Z,73.40
2019-05-14T01:52:41.506Z,73.50
2019-05-14T01:55:11.206Z,73.70
2019-05-14T01:57:37.676Z,73.90
2019-05-14T02:00:06.888Z,74.00
2019-05-14T02:02:34.566Z,74.30
2019-05-14T02:05:02.151Z,74.30
2019-05-14T02:07:31.305Z,74.10
2019-05-14T02:09:58.304Z,74.10
2019-05-14T02:12:26.131Z,74.10
2019-05-14T02:14:53.378Z,74.10
2019-05-14T02:17:21.256Z,74.20
2019-05-14T02:19:51.276Z,74.20
2019-05-14T02:22:18.224Z,74.30
2019-05-14T02:24:45.998Z,74.50
2019-05-14T02:27:13.621Z,74.50
2019-05-14T02:29:41.658Z,74.70
2019-05-14T02:32:10.550Z,74.80
2019-05-14T02:34:39.778Z,75.10
2019-05-14T02:37:09.257Z,75.30
2019-05-14T02:39:36.009Z,75.60
2019-05-14T02:42:03.473Z,75.70
2019-05-14T02:44:30.787Z,75.70
2019-05-14T02:46:59.152Z,75.80
2019-05-14T02:49:29.699Z,75.90
2019-05-14T02:51:58.838Z,76.10
2019-05-14T02:54:25.053Z,76.10
2019-05-14T02:56:52.228Z,76.10
2019-05-14T02:59:19.839Z,76.00
2019-05-14T03:01:49.425Z,76.10
2019-05-14T03:04:19.525Z,76.10
2019-05-14T03:06:45.165Z,76.10
2019-05-14T03:09:12.501Z,76.20
2019-05-14T03:11:40.725Z,76.20
2019-05-14T03:14:09.062Z,76.40
2019-05-14T03:16:40.042Z,76.50
2019-05-14T03:19:05.723Z,76.30
2019-05-14T03:21:34.078Z,76.20
2019-05-14T03:24:01.233Z,76.30
2019-05-14T03:26:29.704Z,76.10
2019-05-14T03:28:59.963Z,76.30
2019-05-14T03:31:32.300Z,76.40
2019-05-14T03:33:55.264Z,76.60
2019-05-14T03:36:26.463Z,76.70
2019-05-14T03:38:52.384Z,76.80
2019-05-14T03:41:19.878Z,77.00
2019-05-14T03:43:49.336Z,77.00
2019-05-14T03:46:20.686Z,77.40
2019-05-14T03:48:49.441Z,77.20
2019-05-14T03:51:16.781Z,77.40
2019-05-14T03:54:00.611Z,77.60
2019-05-14T03:56:14.012Z,77.50
2019-05-14T03:58:41.452Z,77.60
2019-05-14T04:01:09.702Z,77.60
2019-05-14T04:03:39.926Z,77.50
2019-05-14T04:06:10.072Z,77.60
2019-05-14T04:08:39.695Z,77.90
2019-05-14T04:11:09.561Z,77.50
2019-05-14T04:13:40.543Z,77.70
2019-05-14T04:16:10.783Z,77.60
2019-05-14T04:18:40.444Z,77.70
2019-05-14T04:21:10.346Z,77.70
2019-05-14T04:23:40.075Z,77.80
2019-05-14T04:26:09.448Z,77.40
2019-05-14T04:28:39.499Z,77.00
2019-05-14T04:31:09.498Z,75.90
2019-05-14T04:33:39.280Z,75.10
2019-05-14T04:36:09.879Z,74.00
2019-05-14T04:38:36.373Z,72.80
2019-05-14T04:41:03.232Z,71.90
2019-05-14T04:43:30.689Z,70.80
2019-05-14T04:45:59.178Z,70.10
2019-05-14T04:48:33.787Z,68.40
2019-05-14T04:50:56.324Z,68.00
2019-05-14T04:53:23.734Z,66.60
2019-05-14T04:55:50.882Z,66.50
2019-05-14T04:58:21.675Z,66.10
2019-05-14T05:00:49.967Z,65.30
2019-05-14T05:03:19.269Z,64.80
2019-05-14T05:05:45.383Z,64.40
2019-05-14T05:08:14.318Z,64.10
2019-05-14T05:10:42.120Z,64.30
2019-05-14T05:13:09.339Z,63.60
2019-05-14T05:15:39.359Z,63.30
2019-05-14T05:18:05.877Z,63.10
2019-05-14T05:20:33.699Z,62.50
2019-05-14T05:23:01.088Z,62.30
2019-05-14T05:25:29.208Z,61.40
2019-05-14T05:27:59.660Z,61.00
2019-05-14T05:30:25.710Z,60.20
2019-05-14T05:32:52.981Z,60.20
2019-05-14T05:35:20.318Z,59.20
2019-05-14T05:37:49.036Z,58.00
2019-05-14T05:40:19.473Z,57.60
2019-05-14T05:42:45.522Z,57.90
2019-05-14T05:45:14.278Z,57.70
2019-05-14T05:47:54.373Z,56.60
2019-05-14T05:50:10.867Z,56.20
2019-05-14T05:52:38.692Z,55.70
2019-05-14T05:55:08.883Z,55.70
2019-05-14T05:57:39.006Z,55.70
2019-05-14T06:00:09.443Z,56.30
2019-05-14T06:02:39.616Z,56.70
2019-05-14T06:05:08.042Z,56.20
2019-05-14T06:07:35.027Z,55.80
2019-05-14T06:10:02.372Z,55.50
2019-05-14T06:12:29.768Z,55.90
2019-05-14T06:14:57.902Z,54.30
2019-05-14T06:17:25.380Z,53.90
2019-05-14T06:19:52.386Z,53.90
2019-05-14T06:22:19.756Z,54.90
2019-05-14T06:24:48.565Z,53.60
2019-05-14T06:27:18.154Z,53.20
2019-05-14T06:29:48.696Z,51.90
2019-05-14T06:32:15.418Z,51.40
2019-05-14T06:34:42.558Z,51.70
2019-05-14T06:37:09.624Z,50.60
2019-05-14T06:39:39.052Z,48.20
2019-05-14T06:42:08.639Z,48.80
2019-05-14T06:44:35.162Z,48.70
2019-05-14T06:47:02.438Z,48.60
2019-05-14T06:49:32.654Z,48.30
2019-05-14T06:51:59.574Z,48.30
2019-05-14T06:54:29.262Z,48.10
2019-05-14T06:56:58.288Z,48.20
2019-05-14T06:59:25.433Z,48.30
2019-05-14T07:01:52.471Z,49.00
2019-05-14T07:04:19.816Z,48.20
2019-05-14T07:06:48.498Z,47.30
2019-05-14T07:09:18.018Z,47.70
2019-05-14T07:11:45.037Z,45.90
2019-05-14T07:14:12.171Z,45.10
2019-05-14T07:16:39.245Z,44.10
2019-05-14T07:19:06.297Z,42.60
2019-05-14T07:21:33.786Z,42.30
2019-05-14T07:24:01.303Z,42.30
2019-05-14T07:26:29.501Z,42.50
2019-05-14T07:28:59.069Z,41.70
2019-05-14T07:31:28.890Z,39.90
2019-05-14T07:33:58.075Z,39.30
2019-05-14T07:36:24.637Z,39.30
2019-05-14T07:38:51.568Z,39.10
2019-05-14T07:41:22.051Z,39.30
2019-05-14T07:43:49.180Z,39.20
2019-05-14T07:46:19.000Z,38.60
2019-05-14T07:49:00.599Z,37.20
2019-05-14T07:51:15.061Z,37.10
2019-05-14T07:53:42.612Z,36.50
2019-05-14T07:56:10.003Z,35.30
2019-05-14T07:58:38.724Z,36.30
2019-05-14T08:01:06.197Z,35.70
2019-05-14T08:03:33.572Z,35.30
2019-05-14T08:06:08.088Z,35.90
2019-05-14T08:08:35.066Z,35.40
2019-05-14T08:11:02.369Z,34.20
2019-05-14T08:13:32.646Z,34.40
2019-05-14T08:16:00.128Z,33.70
2019-05-14T08:18:29.135Z,32.60
2019-05-14T08:20:58.956Z,32.50
2019-05-14T08:23:28.203Z,32.90
2019-05-14T08:25:55.327Z,33.00
2019-05-14T08:28:22.512Z,32.90
2019-05-14T08:30:49.541Z,33.00
2019-05-14T08:33:18.422Z,32.80
2019-05-14T08:35:45.744Z,33.40
2019-05-14T08:38:13.008Z,33.40
2019-05-14T08:40:39.950Z,34.00
2019-05-14T08:43:09.078Z,32.10
2019-05-14T08:45:36.319Z,32.10
2019-05-14T08:48:03.763Z,31.70
2019-05-14T08:50:31.006Z,33.10
2019-05-14T08:52:58.523Z,33.60
2019-05-14T08:55:26.186Z,33.30
2019-05-14T08:57:53.590Z,32.70
2019-05-14T09:00:20.985Z,32.10
2019-05-14T09:02:49.347Z,32.40
2019-05-14T09:05:18.269Z,30.30
2019-05-14T09:07:45.937Z,30.00
2019-05-14T09:10:13.561Z,32.20
2019-05-14T09:12:40.596Z,31.90
2019-05-14T09:15:09.767Z,30.70
2019-05-14T09:17:39.112Z,29.40
2019-05-14T09:20:08.491Z,29.20
2019-05-14T09:22:35.976Z,28.80
2019-05-14T09:25:04.644Z,27.80
2019-05-14T09:27:31.968Z,28.80
2019-05-14T09:29:59.291Z,27.00
2019-05-14T09:32:28.941Z,28.50
2019-05-14T09:34:55.513Z,28.90
2019-05-14T09:37:22.391Z,29.40
2019-05-14T09:39:49.495Z,31.00
2019-05-14T09:42:19.570Z,31.40
2019-05-14T09:44:48.847Z,29.40
2019-05-14T09:47:15.719Z,30.60
2019-05-14T09:49:43.395Z,29.50
2019-05-14T09:52:10.531Z,29.20
2019-05-14T09:54:41.583Z,28.30
2019-05-14T09:57:08.342Z,28.50
2019-05-14T09:59:35.667Z,28.80
2019-05-14T10:02:03.884Z,28.50
2019-05-14T10:04:30.946Z,29.40
2019-05-14T10:06:59.237Z,30.20
2019-05-14T10:09:28.946Z,29.60
2019-05-14T10:11:58.028Z,29.40
2019-05-14T10:14:25.441Z,27.60
2019-05-14T10:16:52.651Z,27.80
2019-05-14T10:19:19.595Z,28.50
2019-05-14T10:21:49.214Z,29.10
2019-05-14T10:24:18.554Z,29.30
2019-05-14T10:26:48.264Z,28.40
2019-05-14T10:29:15.075Z,27.40
2019-05-14T10:31:42.421Z,26.30
2019-05-14T10:34:09.400Z,27.00
2019-05-14T10:36:36.974Z,29.00
2019-05-14T10:39:05.741Z,28.70
2019-05-14T10:41:33.278Z,30.10
2019-05-14T10:44:00.521Z,31.00
2019-05-14T10:46:29.060Z,30.10
2019-05-14T10:49:00.226Z,29.70
2019-05-14T10:51:28.342Z,31.10
2019-05-14T10:53:55.411Z,28.60
2019-05-14T10:56:22.772Z,27.70
2019-05-14T10:58:49.745Z,27.90
2019-05-14T11:01:22.385Z,26.60
2019-05-14T11:03:48.429Z,27.60
2019-05-14T11:06:15.232Z,27.10
2019-05-14T11:08:42.381Z,28.40
2019-05-14T11:11:10.780Z,27.70
2019-05-14T11:13:39.492Z,27.90
2019-05-14T11:16:08.646Z,27.00
2019-05-14T11:18:36.282Z,28.30
2019-05-14T11:21:18.481Z,27.40
2019-05-14T11:23:34.067Z,27.80
2019-05-14T11:26:01.513Z,26.80
2019-05-14T11:28:29.692Z,26.80
2019-05-14T11:30:57.168Z,26.80
2019-05-14T11:33:25.085Z,26.50
2019-05-14T11:35:52.186Z,25.70
2019-05-14T11:38:29.734Z,25.10
2019-05-14T11:40:49.591Z,26.80
2019-05-14T11:43:17.347Z,26.40
2019-05-14T11:45:44.552Z,25.80
2019-05-14T11:48:11.837Z,25.70
2019-05-14T11:50:39.370Z,25.80
2019-05-14T11:53:08.461Z,26.40
2019-05-14T11:55:38.616Z,26.30
2019-05-14T11:58:04.837Z,26.50
2019-05-14T12:00:31.983Z,26.50
2019-05-14T12:02:59.348Z,27.40
2019-05-14T12:05:30.273Z,27.10
2019-05-14T12:07:57.085Z,26.90
2019-05-14T12:10:24.367Z,27.50
2019-05-14T12:12:52.138Z,27.10
2019-05-14T12:15:19.331Z,26.10
2019-05-14T12:17:50.602Z,26.20
2019-05-14T12:20:16.294Z,26.00
2019-05-14T12:22:43.794Z,25.30
2019-05-14T12:25:11.542Z,26.80
2019-05-14T12:27:41.634Z,27.30
2019-05-14T12:30:09.739Z,27.60
2019-05-14T12:32:39.604Z,28.30
2019-05-14T12:35:08.577Z,30.60
2019-05-14T12:37:38.504Z,30.80
2019-05-14T12:40:05.000Z,31.20
2019-05-14T12:42:32.498Z,29.70
2019-05-14T12:45:00.134Z,29.40
2019-05-14T12:47:29.059Z,27.80
2019-05-14T12:49:58.726Z,27.70
2019-05-14T12:52:26.231Z,27.40
2019-05-14T12:54:53.676Z,27.70
2019-05-14T12:57:20.937Z,27.00
2019-05-14T12:59:48.736Z,26.70
2019-05-14T13:02:18.486Z,26.60
2019-05-14T13:04:45.036Z,26.40
2019-05-14T13:07:12.431Z,26.20
2019-05-14T13:09:39.850Z,26.60
2019-05-14T13:12:11.341Z,25.90
2019-05-14T13:14:36.130Z,27.20
2019-05-14T13:17:03.507Z,27.30
2019-05-14T13:19:30.547Z,28.00
2019-05-14T13:22:12.744Z,27.00
2019-05-14T13:24:30.457Z,26.00
2019-05-14T13:26:58.793Z,26.90
2019-05-14T13:29:28.740Z,26.70
2019-05-14T13:31:55.102Z,26.30
2019-05-14T13:34:22.278Z,26.10
2019-05-14T13:36:49.411Z,25.30
2019-05-14T13:39:19.217Z,25.20
2019-05-14T13:41:45.757Z,26.10
2019-05-14T13:44:24.481Z,25.40
2019-05-14T13:46:48.641Z,26.30
2019-05-14T13:49:18.877Z,27.30
2019-05-14T13:51:44.775Z,26.60
2019-05-14T13:54:11.860Z,26.50
2019-05-14T13:56:39.191Z,25.90
2019-05-14T13:59:09.125Z,25.90
2019-05-14T14:01:36.350Z,26.00
2019-05-14T14:04:11.152Z,27.40
2019-05-14T14:06:32.603Z,28.00
2019-05-14T14:09:00.211Z,28.70
2019-05-14T14:11:28.648Z,27.50
2019-05-14T14:13:58.495Z,26.50
2019-05-14T14:16:27.870Z,26.70
2019-05-14T14:18:54.648Z,27.70
2019-05-14T14:21:21.848Z,29.60
2019-05-14T14:23:52.051Z,30.50
2019-05-14T14:26:19.325Z,31.40
2019-05-14T14:28:49.444Z,31.60
2019-05-14T14:31:15.379Z,29.70
2019-05-14T14:33:42.848Z,30.00
2019-05-14T14:36:10.528Z,29.10
2019-05-14T14:38:40.203Z,29.00
2019-05-14T14:41:10.138Z,29.30
2019-05-14T14:43:42.357Z,27.30
2019-05-14T14:46:11.228Z,29.10
2019-05-14T14:48:34.522Z,29.30
2019-05-14T14:51:01.976Z,30.60
2019-05-14T14:53:45.944Z,31.30
2019-05-14T14:56:00.349Z,31.90
2019-05-14T14:58:28.623Z,33.00
2019-05-14T15:00:56.068Z,33.60
2019-05-14T15:03:23.531Z,32.50
2019-05-14T15:05:50.937Z,31.10
2019-05-14T15:08:20.127Z,30.20
2019-05-14T15:10:48.679Z,29.40
2019-05-14T15:13:16.081Z,29.90
2019-05-14T15:15:43.149Z,30.50
2019-05-14T15:18:13.602Z,31.80
2019-05-14T15:20:39.255Z,33.30
2019-05-14T15:23:09.833Z,34.60
2019-05-14T15:25:35.659Z,35.60
2019-05-14T15:28:03.238Z,34.00
2019-05-14T15:30:30.695Z,33.40
2019-05-14T15:32:59.741Z,31.90
2019-05-14T15:35:28.492Z,32.00
2019-05-14T15:37:58.820Z,32.70
2019-05-14T15:40:25.133Z,34.00
2019-05-14T15:42:52.416Z,35.20
2019-05-14T15:45:19.539Z,36.00
2019-05-14T15:47:48.427Z,35.90
2019-05-14T15:50:15.984Z,36.50
2019-05-14T15:52:42.997Z,34.70
2019-05-14T15:55:10.626Z,32.10
2019-05-14T15:57:39.781Z,31.50
2019-05-14T16:00:09.083Z,31.10
2019-05-14T16:02:39.189Z,31.20
2019-05-14T16:05:10.087Z,31.70
2019-05-14T16:07:39.076Z,33.00
2019-05-14T16:10:08.562Z,33.40
2019-05-14T16:12:35.768Z,33.80
2019-05-14T16:15:03.024Z,36.90
2019-05-14T16:17:30.524Z,36.70
2019-05-14T16:19:58.255Z,36.50
2019-05-14T16:22:25.523Z,37.00
2019-05-14T16:24:57.192Z,37.00
2019-05-14T16:27:22.190Z,36.40
2019-05-14T16:29:50.569Z,35.40
2019-05-14T16:32:18.024Z,34.40
2019-05-14T16:34:45.339Z,35.20
2019-05-14T16:37:12.556Z,34.80
2019-05-14T16:39:39.843Z,35.60
2019-05-14T16:42:07.581Z,35.80
2019-05-14T16:44:34.986Z,37.20
2019-05-14T16:47:02.215Z,38.00
2019-05-14T16:49:30.338Z,38.50
2019-05-14T16:51:59.654Z,38.70
2019-05-14T16:54:29.431Z,39.00
2019-05-14T16:56:56.230Z,38.10
2019-05-14T16:59:23.736Z,38.60
2019-05-14T17:01:50.866Z,37.50
2019-05-14T17:04:19.083Z,36.40
2019-05-14T17:06:49.167Z,36.90
2019-05-14T17:09:15.707Z,38.10
2019-05-14T17:11:43.696Z,38.30
2019-05-14T17:14:10.830Z,38.70
2019-05-14T17:16:38.285Z,38.80
2019-05-14T17:19:05.854Z,38.50
2019-05-14T17:21:33.214Z,38.80
2019-05-14T17:24:00.480Z,38.80
2019-05-14T17:26:29.194Z,40.10
2019-05-14T17:28:59.441Z,39.70
2019-05-14T17:31:25.792Z,39.90
2019-05-14T17:33:53.201Z,40.40
2019-05-14T17:36:20.753Z,40.00
2019-05-14T17:38:49.157Z,40.90
2019-05-14T17:41:19.228Z,40.20
2019-05-14T17:43:46.332Z,40.90
2019-05-14T17:46:14.124Z,41.10
2019-05-14T17:48:41.495Z,41.80
2019-05-14T17:51:09.532Z,41.80
2019-05-14T17:53:38.563Z,42.20
2019-05-14T17:56:08.227Z,42.70
2019-05-14T17:58:35.021Z,43.30
2019-05-14T18:01:02.206Z,43.90
2019-05-14T18:03:29.901Z,44.70
2019-05-14T18:05:58.158Z,44.90
2019-05-14T18:08:25.780Z,46.00
2019-05-14T18:10:53.354Z,46.30
2019-05-14T18:13:20.462Z,47.10
2019-05-14T18:15:48.826Z,47.40
2019-05-14T18:18:18.343Z,47.70
2019-05-14T18:20:44.922Z,47.80
2019-05-14T18:23:12.601Z,48.30
2019-05-14T18:25:40.231Z,48.20
2019-05-14T18:28:09.275Z,48.60
2019-05-14T18:30:38.512Z,49.10
2019-05-14T18:33:05.281Z,48.90
2019-05-14T18:35:32.356Z,49.10
2019-05-14T18:38:00.857Z,49.50
2019-05-14T18:40:28.197Z,49.90
2019-05-14T18:42:55.431Z,50.60
2019-05-14T18:45:23.809Z,51.10
2019-05-14T18:47:51.362Z,51.30
2019-05-14T18:50:19.746Z,51.50
2019-05-14T18:52:48.518Z,51.20
2019-05-14T18:55:18.698Z,51.90
2019-05-14T18:57:45.661Z,52.00
2019-05-14T19:00:13.797Z,52.20
2019-05-14T19:02:41.031Z,52.10
2019-05-14T19:05:08.766Z,52.50
2019-05-14T19:07:38.687Z,52.40
2019-05-14T19:10:05.971Z,52.60
2019-05-14T19:12:33.466Z,52.90
2019-05-14T19:15:00.796Z,53.30
2019-05-14T19:17:28.350Z,54.00
2019-05-14T19:19:55.559Z,54.30
2019-05-14T19:22:22.807Z,54.60
2019-05-14T19:24:50.212Z,54.90
2019-05-14T19:27:17.567Z,55.50
2019-05-14T19:29:45.054Z,55.70
2019-05-14T19:32:12.198Z,55.80
2019-05-14T19:34:39.626Z,56.20
2019-05-14T19:37:08.308Z,56.60
2019-05-14T19:39:38.384Z,56.60
2019-05-14T19:42:05.056Z,57.00
2019-05-14T19:44:32.899Z,57.40
2019-05-14T19:47:00.407Z,57.40
2019-05-14T19:49:28.855Z,58.00
2019-05-14T19:51:58.695Z,58.40
2019-05-14T19:54:29.039Z,58.60
2019-05-14T19:56:57.352Z,59.00
2019-05-14T19:59:26.013Z,59.00
2019-05-14T20:01:52.957Z,59.20
2019-05-14T20:04:20.129Z,59.60
2019-05-14T20:06:49.395Z,59.80
2019-05-14T20:09:17.865Z,60.20
2019-05-14T20:11:45.183Z,60.30
2019-05-14T20:14:12.211Z,60.50
2019-05-14T20:16:39.518Z,60.70
2019-05-14T20:19:08.850Z,61.20
2019-05-14T20:21:36.106Z,61.30
2019-05-14T20:24:03.426Z,61.50
2019-05-14T20:26:30.980Z,62.00
2019-05-14T20:28:59.053Z,62.50
2019-05-14T20:31:26.185Z,62.20
2019-05-14T20:33:53.351Z,62.20
2019-05-14T20:36:20.937Z,61.90
2019-05-14T20:38:48.272Z,62.10
2019-05-14T20:41:17.904Z,62.40
2019-05-14T20:43:48.443Z,62.00
2019-05-14T20:46:18.321Z,62.10
2019-05-14T20:48:44.726Z,62.20
2019-05-14T20:51:11.982Z,62.40
2019-05-14T20:53:39.771Z,62.50
2019-05-14T20:56:08.371Z,62.40
2019-05-14T20:58:35.888Z,62.40
2019-05-14T21:01:03.087Z,62.50
2019-05-14T21:03:30.486Z,62.50
2019-05-14T21:05:58.366Z,62.20
2019-05-14T21:08:25.398Z,62.60
2019-05-14T21:10:53.047Z,62.60
2019-05-14T21:13:20.432Z,62.60
2019-05-14T21:15:48.348Z,63.00
2019-05-14T21:18:15.889Z,62.80
2019-05-14T21:20:43.434Z,63.00
2019-05-14T21:23:10.362Z,63.10
2019-05-14T21:25:38.795Z,63.30
2019-05-14T21:28:09.106Z,63.50
2019-05-14T21:30:35.918Z,63.40
2019-05-14T21:33:03.079Z,63.70
2019-05-14T21:35:33.777Z,64.10
2019-05-14T21:38:00.893Z,64.10
2019-05-14T21:40:31.674Z,64.10
2019-05-14T21:42:57.955Z,64.20
2019-05-14T21:45:28.433Z,64.00
2019-05-14T21:47:55.832Z,65.00
2019-05-14T21:50:23.191Z,65.80
2019-05-14T21:52:50.208Z,66.70
2019-05-14T21:55:19.678Z,67.10
2019-05-14T21:57:54.191Z,67.30
2019-05-14T22:00:23.935Z,67.70
2019-05-14T22:02:53.393Z,68.70
2019-05-14T22:05:20.922Z,68.90
2019-05-14T22:07:48.538Z,68.90
2019-05-14T22:10:16.047Z,68.90
2019-05-14T22:12:43.230Z,68.90
2019-05-14T22:15:10.653Z,69.30
2019-05-14T22:17:38.367Z,69.80
2019-05-14T22:20:07.846Z,70.60
2019-05-14T22:22:34.835Z,71.10
2019-05-14T22:25:03.320Z,71.10
2019-05-14T22:27:31.798Z,70.90
2019-05-14T22:29:59.061Z,70.80
2019-05-14T22:32:28.483Z,71.10
2019-05-14T22:34:55.305Z,71.30
2019-05-14T22:37:22.634Z,71.80
2019-05-14T22:39:49.890Z,72.00
2019-05-14T22:42:18.861Z,72.00
2019-05-14T22:44:50.195Z,71.90
2019-05-14T22:47:15.246Z,72.30
2019-05-14T22:49:43.136Z,72.70
2019-05-14T22:52:10.456Z,72.70
2019-05-14T22:54:38.620Z,72.80
2019-05-14T22:57:06.028Z,72.90
2019-05-14T22:59:33.423Z,72.90
2019-05-14T23:02:00.343Z,73.00
2019-05-14T23:04:28.980Z,73.20
2019-05-14T23:06:58.526Z,73.60
2019-05-14T23:09:25.419Z,73.70
2019-05-14T23:11:52.673Z,74.00
2019-05-14T23:14:20.214Z,74.20
2019-05-14T23:16:49.184Z,75.10
2019-05-14T23:19:18.661Z,75.40
2019-05-14T23:21:45.863Z,75.60
2019-05-14T23:24:12.848Z,75.90
2019-05-14T23:26:39.879Z,76.10
2019-05-14T23:29:07.305Z,76.20
2019-05-14T23:31:34.762Z,76.30
2019-05-14T23:34:02.158Z,76.70
2019-05-14T23:36:29.312Z,77.30
2019-05-14T23:38:59.137Z,77.90
2019-05-14T23:41:28.484Z,78.60
2019-05-14T23:43:55.115Z,78.60
2019-05-14T23:46:25.706Z,78.20
2019-05-14T23:48:52.895Z,78.30
2019-05-14T23:51:19.958Z,78.40
2019-05-14T23:53:48.287Z,78.80
2019-05-14T23:56:15.679Z,79.10
2019-05-14T23:58:54.937Z,79.20
